createdAt,value
2017-01-23T00:00:34.614Z,0
2017-01-23T00:01:15.119Z,0
2017-01-23T00:01:55.599Z,0
2017-01-23T00:02:36.111Z,0
2017-01-23T00:03:16.612Z,0
2017-01-23T00:03:57.168Z,0
2017-01-23T00:04:37.598Z,0
2017-01-23T00:05:18.251Z,0
2017-01-23T00:05:58.697Z,0
2017-01-23T00:06:39.229Z,0
2017-01-23T00:07:19.854Z,0
2017-01-23T00:08:00.359Z,0
2017-01-23T00:08:40.856Z,0
2017-01-23T00:09:21.312Z,0
2017-01-23T00:10:01.779Z,0
2017-01-23T00:11:59.903Z,0
2017-01-23T00:12:40.396Z,0
2017-01-23T00:13:20.911Z,0
2017-01-23T00:15:34.112Z,0
2017-01-23T00:16:14.604Z,0
2017-01-23T00:16:55.105Z,0
2017-01-23T00:17:35.611Z,0
2017-01-23T00:18:16.101Z,0
2017-01-23T00:18:56.629Z,0
2017-01-23T00:19:37.114Z,0
2017-01-23T00:20:17.641Z,0
2017-01-23T00:20:58.120Z,0
2017-01-23T00:21:38.640Z,0
2017-01-23T00:22:19.134Z,0
2017-01-23T00:22:59.582Z,0
2017-01-23T00:23:40.108Z,0
2017-01-23T00:24:20.598Z,0
2017-01-23T00:25:01.086Z,0
2017-01-23T00:25:41.612Z,0
2017-01-23T00:26:22.095Z,0
2017-01-23T00:27:02.640Z,0
2017-01-23T00:27:43.111Z,0
2017-01-23T00:28:23.580Z,0
2017-01-23T00:29:04.045Z,0
2017-01-23T00:29:44.550Z,0
2017-01-23T00:30:25.072Z,0
2017-01-23T00:31:05.673Z,0
2017-01-23T00:31:46.183Z,0
2017-01-23T00:32:26.668Z,0
2017-01-23T00:33:07.196Z,0
2017-01-23T00:33:47.694Z,0
2017-01-23T00:34:28.182Z,0
2017-01-23T00:35:08.637Z,0
2017-01-23T00:35:49.117Z,0
2017-01-23T00:36:29.627Z,0
2017-01-23T00:37:10.136Z,0
2017-01-23T00:37:50.608Z,0
2017-01-23T00:38:31.102Z,0
2017-01-23T00:39:11.602Z,0
2017-01-23T00:39:52.099Z,0
2017-01-23T00:40:32.596Z,0
2017-01-23T00:41:13.124Z,0
2017-01-23T00:41:53.629Z,0
2017-01-23T00:42:34.120Z,0
2017-01-23T00:43:14.612Z,0
2017-01-23T00:43:55.129Z,0
2017-01-23T00:44:35.700Z,0
2017-01-23T00:45:16.182Z,0
2017-01-23T00:45:56.667Z,0
2017-01-23T00:46:37.205Z,0
2017-01-23T00:47:17.698Z,0
2017-01-23T00:47:58.222Z,0
2017-01-23T00:48:38.722Z,0
2017-01-23T00:49:19.222Z,0
2017-01-23T00:49:59.701Z,0
2017-01-23T00:50:40.248Z,0
2017-01-23T00:51:20.708Z,0
2017-01-23T00:52:01.203Z,0
2017-01-23T00:52:41.701Z,0
2017-01-23T00:53:22.150Z,0
2017-01-23T00:54:02.618Z,0
2017-01-23T00:54:43.102Z,0
2017-01-23T00:55:23.595Z,0
2017-01-23T00:56:04.130Z,0
2017-01-23T00:56:44.596Z,0
2017-01-23T00:57:25.152Z,0
2017-01-23T00:58:05.637Z,0
2017-01-23T00:58:46.150Z,0
2017-01-23T00:59:26.623Z,0
2017-01-23T01:00:07.144Z,0
2017-01-23T01:00:47.630Z,0
2017-01-23T01:01:28.151Z,0
2017-01-23T01:02:08.664Z,0
2017-01-23T01:02:49.167Z,0
2017-01-23T01:03:29.694Z,0
2017-01-23T01:04:10.183Z,0
2017-01-23T01:04:50.694Z,0
2017-01-23T01:05:31.229Z,0
2017-01-23T01:06:11.700Z,0
2017-01-23T01:06:52.240Z,0
2017-01-23T01:07:32.704Z,0
2017-01-23T01:08:13.219Z,0
2017-01-23T01:08:53.677Z,0
2017-01-23T01:09:34.187Z,0
2017-01-23T01:10:14.714Z,0
2017-01-23T01:10:55.217Z,0
2017-01-23T01:11:35.721Z,0
2017-01-23T01:12:16.238Z,0
2017-01-23T01:12:56.703Z,0
2017-01-23T01:13:37.211Z,0
2017-01-23T01:14:17.712Z,0
2017-01-23T01:14:58.229Z,0
2017-01-23T01:15:38.687Z,0
2017-01-23T01:16:19.227Z,0
2017-01-23T01:16:59.702Z,0
2017-01-23T01:17:40.212Z,0
2017-01-23T01:18:20.775Z,0
2017-01-23T01:19:01.212Z,0
2017-01-23T01:19:41.685Z,0
2017-01-23T01:20:22.209Z,0
2017-01-23T01:21:02.666Z,0
2017-01-23T01:21:43.174Z,0
2017-01-23T01:22:23.672Z,0
2017-01-23T01:23:04.143Z,0
2017-01-23T01:23:44.619Z,0
2017-01-23T01:24:25.151Z,0
2017-01-23T01:25:05.637Z,0
2017-01-23T01:25:46.143Z,0
2017-01-23T01:26:26.646Z,0
2017-01-23T01:27:07.153Z,0
2017-01-23T01:27:47.606Z,0
2017-01-23T01:28:28.132Z,0
2017-01-23T01:29:08.604Z,0
2017-01-23T01:29:49.174Z,0
2017-01-23T01:30:29.712Z,0
2017-01-23T01:31:10.156Z,0
2017-01-23T01:31:50.640Z,0
2017-01-23T01:32:31.153Z,0
2017-01-23T01:33:11.680Z,0
2017-01-23T01:33:52.155Z,0
2017-01-23T01:34:32.653Z,0
2017-01-23T01:35:13.157Z,0
2017-01-23T01:35:53.641Z,0
2017-01-23T01:36:34.137Z,0
2017-01-23T01:37:14.662Z,0
2017-01-23T01:37:55.155Z,0
2017-01-23T01:38:35.689Z,0
2017-01-23T01:39:16.209Z,0
2017-01-23T01:39:56.749Z,0
2017-01-23T01:40:37.205Z,0
2017-01-23T01:41:17.678Z,0
2017-01-23T01:41:58.146Z,0
2017-01-23T01:42:38.639Z,0
2017-01-23T01:43:19.123Z,0
2017-01-23T01:43:59.587Z,0
2017-01-23T01:44:40.108Z,0
2017-01-23T01:45:20.554Z,0
2017-01-23T01:46:01.124Z,0
2017-01-23T01:46:41.646Z,0
2017-01-23T01:47:22.100Z,0
2017-01-23T01:48:02.585Z,0
2017-01-23T01:48:43.112Z,0
2017-01-23T01:49:23.579Z,0
2017-01-23T01:50:04.082Z,0
2017-01-23T01:50:44.612Z,0
2017-01-23T01:51:25.142Z,0
2017-01-23T01:52:05.621Z,0
2017-01-23T01:52:46.101Z,0
2017-01-23T01:53:26.591Z,0
2017-01-23T01:54:07.094Z,0
2017-01-23T01:54:47.618Z,0
2017-01-23T01:55:28.077Z,0
2017-01-23T01:56:08.556Z,0
2017-01-23T01:56:49.030Z,0
2017-01-23T01:57:29.538Z,0
2017-01-23T01:58:10.016Z,0
2017-01-23T01:58:50.531Z,0
2017-01-23T01:59:31.031Z,0
2017-01-23T02:00:11.567Z,0
2017-01-23T02:00:52.068Z,0
2017-01-23T02:01:32.568Z,0
2017-01-23T02:02:13.077Z,0
2017-01-23T02:02:53.589Z,0
2017-01-23T02:03:34.077Z,0
2017-01-23T02:04:14.627Z,0
2017-01-23T02:04:55.117Z,0
2017-01-23T02:05:35.712Z,0
2017-01-23T02:06:16.198Z,0
2017-01-23T02:06:57.031Z,0
2017-01-23T02:07:37.545Z,0
2017-01-23T02:08:18.069Z,0
2017-01-23T02:08:58.585Z,0
2017-01-23T02:09:39.068Z,0
2017-01-23T02:10:19.572Z,0
2017-01-23T02:11:00.065Z,0
2017-01-23T02:11:40.573Z,0
2017-01-23T02:12:21.062Z,0
2017-01-23T02:13:01.603Z,0
2017-01-23T02:13:42.122Z,0
2017-01-23T02:14:22.620Z,0
2017-01-23T02:16:51.096Z,0
2017-01-23T02:17:31.607Z,0
2017-01-23T02:18:12.091Z,0
2017-01-23T02:18:52.609Z,0
2017-01-23T02:19:33.113Z,0
2017-01-23T02:20:13.617Z,0
2017-01-23T02:20:54.158Z,0
2017-01-23T02:21:34.642Z,0
2017-01-23T02:22:15.140Z,0
2017-01-23T02:22:55.611Z,0
2017-01-23T02:23:36.105Z,0
2017-01-23T02:24:16.637Z,0
2017-01-23T02:24:57.269Z,0
2017-01-23T02:25:37.716Z,0
2017-01-23T02:26:18.215Z,0
2017-01-23T02:26:58.738Z,0
2017-01-23T02:27:39.191Z,0
2017-01-23T02:28:19.693Z,0
2017-01-23T02:29:00.167Z,0
2017-01-23T02:29:40.645Z,0
2017-01-23T02:30:21.139Z,0
2017-01-23T02:31:01.607Z,0
2017-01-23T02:31:42.090Z,0
2017-01-23T02:32:22.622Z,0
2017-01-23T02:33:03.179Z,0
2017-01-23T02:33:43.636Z,0
2017-01-23T02:34:24.131Z,0
2017-01-23T02:35:04.599Z,0
2017-01-23T02:35:45.077Z,0
2017-01-23T02:36:25.605Z,0
2017-01-23T02:37:06.124Z,0
2017-01-23T02:37:46.576Z,0
2017-01-23T02:38:27.092Z,0
2017-01-23T02:39:07.683Z,0
2017-01-23T02:39:48.108Z,0
2017-01-23T02:40:28.605Z,0
2017-01-23T02:41:09.080Z,0
2017-01-23T02:41:49.591Z,0
2017-01-23T02:42:30.089Z,0
2017-01-23T02:43:10.608Z,0
2017-01-23T02:43:51.121Z,0
2017-01-23T02:44:31.588Z,0
2017-01-23T02:45:12.076Z,0
2017-01-23T02:45:52.566Z,0
2017-01-23T02:46:33.069Z,0
2017-01-23T02:47:13.537Z,0
2017-01-23T02:47:54.040Z,0
2017-01-23T02:48:34.531Z,0
2017-01-23T02:49:15.068Z,0
2017-01-23T02:49:55.530Z,0
2017-01-23T02:50:36.061Z,0
2017-01-23T02:51:16.571Z,0
2017-01-23T02:51:57.075Z,0
2017-01-23T02:52:37.537Z,0
2017-01-23T02:53:18.003Z,0
2017-01-23T02:53:58.515Z,0
2017-01-23T02:54:39.058Z,0
2017-01-23T02:55:19.535Z,0
2017-01-23T02:56:00.091Z,0
2017-01-23T02:56:40.515Z,0
2017-01-23T02:57:20.956Z,0
2017-01-23T02:58:01.462Z,0
2017-01-23T02:58:41.968Z,0
2017-01-23T02:59:22.461Z,0
2017-01-23T03:00:02.952Z,0
2017-01-23T03:00:43.462Z,0
2017-01-23T03:01:23.924Z,0
2017-01-23T03:02:04.419Z,0
2017-01-23T03:02:44.938Z,0
2017-01-23T03:03:25.421Z,0
2017-01-23T03:04:05.895Z,0
2017-01-23T03:04:46.386Z,0
2017-01-23T03:05:26.917Z,0
2017-01-23T03:06:07.381Z,0
2017-01-23T03:06:47.864Z,0
2017-01-23T03:07:28.354Z,0
2017-01-23T03:08:08.831Z,0
2017-01-23T03:10:42.558Z,0
2017-01-23T03:12:40.695Z,0
2017-01-23T03:13:21.236Z,0
2017-01-23T03:14:01.726Z,0
2017-01-23T03:14:42.560Z,0
2017-01-23T03:15:23.025Z,0
2017-01-23T03:16:03.555Z,0
2017-01-23T03:16:44.080Z,0
2017-01-23T03:17:24.541Z,0
2017-01-23T03:18:05.032Z,0
2017-01-23T03:18:45.612Z,0
2017-01-23T03:19:26.124Z,0
2017-01-23T03:20:06.590Z,0
2017-01-23T03:20:47.081Z,0
2017-01-23T03:21:27.550Z,0
2017-01-23T03:22:08.064Z,0
2017-01-23T03:22:48.605Z,0
2017-01-23T03:23:29.097Z,0
2017-01-23T03:24:09.556Z,0
2017-01-23T03:24:50.052Z,0
2017-01-23T03:25:30.527Z,0
2017-01-23T03:26:11.046Z,0
2017-01-23T03:26:51.563Z,0
2017-01-23T03:27:32.154Z,0
2017-01-23T03:28:12.632Z,0
2017-01-23T03:28:53.177Z,0
2017-01-23T03:29:33.661Z,0
2017-01-23T03:30:14.126Z,0
2017-01-23T03:30:54.680Z,0
2017-01-23T03:31:35.171Z,0
2017-01-23T03:32:15.637Z,0
2017-01-23T03:32:56.122Z,0
2017-01-23T03:33:36.637Z,0
2017-01-23T03:34:17.131Z,0
2017-01-23T03:34:57.627Z,0
2017-01-23T03:35:38.118Z,0
2017-01-23T03:36:18.600Z,0
2017-01-23T03:36:59.093Z,0
2017-01-23T03:37:39.617Z,0
2017-01-23T03:38:20.159Z,0
2017-01-23T03:39:00.639Z,0
2017-01-23T03:39:41.119Z,0
2017-01-23T03:40:21.694Z,0
2017-01-23T03:41:02.110Z,0
2017-01-23T03:41:42.642Z,0
2017-01-23T03:42:23.124Z,0
2017-01-23T03:43:03.618Z,0
2017-01-23T03:43:44.102Z,0
2017-01-23T03:44:24.567Z,0
2017-01-23T03:45:05.163Z,0
2017-01-23T03:45:45.623Z,0
2017-01-23T03:46:26.082Z,0
2017-01-23T03:47:06.589Z,0
2017-01-23T03:47:47.081Z,0
2017-01-23T03:48:27.552Z,0
2017-01-23T03:49:08.065Z,0
2017-01-23T03:49:48.550Z,0
2017-01-23T03:50:29.126Z,0
2017-01-23T03:51:09.629Z,0
2017-01-23T03:51:50.123Z,0
2017-01-23T03:52:30.648Z,0
2017-01-23T03:53:11.152Z,0
2017-01-23T03:53:51.655Z,0
2017-01-23T03:54:32.148Z,0
2017-01-23T03:55:12.655Z,0
2017-01-23T03:55:53.168Z,0
2017-01-23T03:56:33.693Z,0
2017-01-23T03:57:14.170Z,0
2017-01-23T03:57:54.617Z,0
2017-01-23T03:58:35.100Z,0
2017-01-23T03:59:15.626Z,0
2017-01-23T03:59:56.143Z,0
2017-01-23T04:00:36.647Z,0
2017-01-23T04:01:17.128Z,0
2017-01-23T04:01:57.622Z,0
2017-01-23T04:02:38.115Z,0
2017-01-23T04:03:18.624Z,0
2017-01-23T04:03:59.108Z,0
2017-01-23T04:04:39.635Z,0
2017-01-23T04:05:20.145Z,0
2017-01-23T04:06:00.636Z,0
2017-01-23T04:06:41.136Z,0
2017-01-23T04:07:21.630Z,0
2017-01-23T04:08:02.144Z,0
2017-01-23T04:08:42.663Z,0
2017-01-23T04:09:23.149Z,0
2017-01-23T04:10:03.627Z,0
2017-01-23T04:10:44.165Z,0
2017-01-23T04:11:24.667Z,0
2017-01-23T04:12:05.164Z,0
2017-01-23T04:12:45.640Z,0
2017-01-23T04:13:26.150Z,0
2017-01-23T04:14:06.625Z,0
2017-01-23T04:14:47.171Z,0
2017-01-23T04:15:27.698Z,0
2017-01-23T04:16:08.207Z,0
2017-01-23T04:16:48.695Z,0
2017-01-23T04:17:29.179Z,0
2017-01-23T04:18:09.709Z,0
2017-01-23T04:18:50.209Z,0
2017-01-23T04:19:30.695Z,0
2017-01-23T04:20:11.186Z,0
2017-01-23T04:22:24.697Z,0
2017-01-23T04:23:05.215Z,0
2017-01-23T04:23:45.714Z,0
2017-01-23T04:24:26.219Z,0
2017-01-23T04:25:06.689Z,0
2017-01-23T04:25:47.175Z,0
2017-01-23T04:26:27.644Z,0
2017-01-23T04:27:08.157Z,0
2017-01-23T04:27:48.638Z,0
2017-01-23T04:28:29.146Z,0
2017-01-23T04:29:09.636Z,0
2017-01-23T04:29:50.157Z,0
2017-01-23T04:30:30.619Z,0
2017-01-23T04:31:11.133Z,0
2017-01-23T04:31:51.603Z,0
2017-01-23T04:32:32.100Z,0
2017-01-23T04:33:12.606Z,0
2017-01-23T04:33:53.121Z,0
2017-01-23T04:34:33.558Z,0
2017-01-23T04:35:14.057Z,0
2017-01-23T04:35:54.548Z,0
2017-01-23T04:36:35.074Z,0
2017-01-23T04:37:15.541Z,0
2017-01-23T04:37:56.043Z,0
2017-01-23T04:38:36.562Z,0
2017-01-23T04:39:17.063Z,0
2017-01-23T04:39:57.586Z,0
2017-01-23T04:40:38.058Z,0
2017-01-23T04:41:18.547Z,0
2017-01-23T04:41:59.080Z,0
2017-01-23T04:42:39.586Z,0
2017-01-23T04:43:20.058Z,0
2017-01-23T04:44:00.566Z,0
2017-01-23T04:44:41.060Z,0
2017-01-23T04:45:21.590Z,0
2017-01-23T04:46:02.105Z,0
2017-01-23T04:46:42.641Z,0
2017-01-23T04:47:23.141Z,0
2017-01-23T04:48:03.662Z,0
2017-01-23T04:48:44.149Z,0
2017-01-23T04:49:24.670Z,0
2017-01-23T04:50:05.127Z,0
2017-01-23T04:50:45.642Z,0
2017-01-23T04:51:26.111Z,0
2017-01-23T04:52:06.660Z,0
2017-01-23T04:52:47.110Z,0
2017-01-23T04:53:27.641Z,0
2017-01-23T04:54:08.113Z,0
2017-01-23T04:54:48.560Z,0
2017-01-23T04:55:29.098Z,0
2017-01-23T04:56:09.626Z,0
2017-01-23T04:56:50.127Z,0
2017-01-23T04:57:30.611Z,0
2017-01-23T04:58:11.127Z,0
2017-01-23T04:58:51.643Z,0
2017-01-23T04:59:32.073Z,0
2017-01-23T05:00:12.569Z,0
2017-01-23T05:00:53.084Z,0
2017-01-23T05:01:33.591Z,0
2017-01-23T05:02:14.082Z,0
2017-01-23T05:02:54.570Z,0
2017-01-23T05:03:35.101Z,0
2017-01-23T05:04:15.588Z,0
2017-01-23T05:04:56.084Z,0
2017-01-23T05:05:36.609Z,0
2017-01-23T05:06:17.116Z,0
2017-01-23T05:06:57.860Z,0
2017-01-23T05:07:38.201Z,0
2017-01-23T05:08:18.695Z,0
2017-01-23T05:08:59.198Z,0
2017-01-23T05:09:39.694Z,0
2017-01-23T05:10:20.201Z,0
2017-01-23T05:11:00.755Z,0
2017-01-23T05:11:41.197Z,0
2017-01-23T05:12:21.694Z,0
2017-01-23T05:13:02.206Z,0
2017-01-23T05:13:42.764Z,0
2017-01-23T05:14:23.228Z,0
2017-01-23T05:15:03.771Z,0
2017-01-23T05:15:44.230Z,0
2017-01-23T05:16:24.729Z,0
2017-01-23T05:17:05.230Z,0
2017-01-23T05:17:45.706Z,0
2017-01-23T05:18:26.197Z,0
2017-01-23T05:19:06.696Z,0
2017-01-23T05:19:47.242Z,0
2017-01-23T05:20:27.816Z,0
2017-01-23T05:21:08.236Z,0
2017-01-23T05:21:48.783Z,0
2017-01-23T05:22:29.249Z,0
2017-01-23T05:23:09.753Z,0
2017-01-23T05:23:50.272Z,0
2017-01-23T05:24:30.789Z,0
2017-01-23T05:25:11.238Z,0
2017-01-23T05:25:51.756Z,0
2017-01-23T05:26:32.281Z,0
2017-01-23T05:27:12.782Z,0
2017-01-23T05:27:53.284Z,0
2017-01-23T05:28:33.774Z,0
2017-01-23T05:29:14.291Z,0
2017-01-23T05:29:54.796Z,0
2017-01-23T05:30:35.285Z,0
2017-01-23T05:31:15.766Z,0
2017-01-23T05:31:56.285Z,0
2017-01-23T05:32:36.825Z,0
2017-01-23T05:33:17.294Z,0
2017-01-23T05:33:57.786Z,0
2017-01-23T05:34:38.324Z,0
2017-01-23T05:35:18.822Z,0
2017-01-23T05:35:59.336Z,0
2017-01-23T05:36:40.365Z,0
2017-01-23T05:37:21.187Z,0
2017-01-23T05:38:01.756Z,0
2017-01-23T05:38:42.228Z,0
2017-01-23T05:39:22.661Z,0
2017-01-23T05:40:03.146Z,0
2017-01-23T05:40:43.651Z,0
2017-01-23T05:41:24.165Z,0
2017-01-23T05:42:04.672Z,0
2017-01-23T05:42:45.154Z,0
2017-01-23T05:43:25.646Z,0
2017-01-23T05:44:06.184Z,0
2017-01-23T05:44:46.689Z,0
2017-01-23T05:45:27.153Z,0
2017-01-23T05:46:07.648Z,0
2017-01-23T05:46:48.115Z,0
2017-01-23T05:47:28.589Z,0
2017-01-23T05:48:09.083Z,0
2017-01-23T05:48:49.571Z,0
2017-01-23T05:49:30.087Z,0
2017-01-23T05:50:10.585Z,0
2017-01-23T05:50:51.049Z,0
2017-01-23T05:51:31.578Z,0
2017-01-23T05:52:12.089Z,0
2017-01-23T05:52:52.551Z,0
2017-01-23T05:53:33.004Z,0
2017-01-23T05:54:13.548Z,0
2017-01-23T05:54:54.051Z,0
2017-01-23T05:55:34.540Z,0
2017-01-23T05:56:15.022Z,0
2017-01-23T05:56:55.557Z,0
2017-01-23T05:57:37.484Z,0
2017-01-23T05:58:18.298Z,0
2017-01-23T05:58:58.778Z,0
2017-01-23T05:59:39.844Z,0
2017-01-23T06:00:20.311Z,0
2017-01-23T06:01:00.805Z,0
2017-01-23T06:01:42.162Z,0
2017-01-23T06:02:22.665Z,0
2017-01-23T06:03:03.137Z,0
2017-01-23T06:03:43.689Z,0
2017-01-23T06:04:24.176Z,0
2017-01-23T06:05:04.687Z,0
2017-01-23T06:05:45.130Z,0
2017-01-23T06:06:25.648Z,0
2017-01-23T06:07:06.109Z,0
2017-01-23T06:07:46.606Z,0
2017-01-23T06:08:27.064Z,0
2017-01-23T06:09:07.599Z,0
2017-01-23T06:09:48.076Z,0
2017-01-23T06:10:28.587Z,0
2017-01-23T06:11:09.065Z,0
2017-01-23T06:11:49.600Z,0
2017-01-23T06:12:30.101Z,0
2017-01-23T06:13:10.572Z,0
2017-01-23T06:13:51.069Z,0
2017-01-23T06:14:31.575Z,0
2017-01-23T06:15:12.060Z,0
2017-01-23T06:15:52.517Z,0
2017-01-23T06:16:32.997Z,0
2017-01-23T06:17:13.511Z,0
2017-01-23T06:17:53.991Z,0
2017-01-23T06:18:34.506Z,0
2017-01-23T06:19:15.005Z,0
2017-01-23T06:19:55.509Z,0
2017-01-23T06:20:35.976Z,0
2017-01-23T06:21:16.493Z,0
2017-01-23T06:21:56.976Z,0
2017-01-23T06:22:37.537Z,0
2017-01-23T06:23:18.012Z,0
2017-01-23T06:23:58.523Z,0
2017-01-23T06:24:39.037Z,0
2017-01-23T06:25:19.482Z,0
2017-01-23T06:25:59.943Z,0
2017-01-23T06:26:40.436Z,0
2017-01-23T06:27:20.896Z,0
2017-01-23T06:28:01.391Z,0
2017-01-23T06:28:41.887Z,0
2017-01-23T06:29:22.416Z,0
2017-01-23T06:30:02.946Z,0
2017-01-23T06:30:43.445Z,0
2017-01-23T06:31:23.971Z,0
2017-01-23T06:32:04.460Z,0
2017-01-23T06:32:44.966Z,0
2017-01-23T06:33:25.424Z,0
2017-01-23T06:34:05.920Z,0
2017-01-23T06:34:46.412Z,0
2017-01-23T06:35:26.944Z,0
2017-01-23T06:36:07.402Z,0
2017-01-23T06:36:47.882Z,0
2017-01-23T06:37:28.430Z,0
2017-01-23T06:38:08.898Z,0
2017-01-23T06:38:49.429Z,0
2017-01-23T06:39:29.855Z,0
2017-01-23T06:40:10.332Z,0
2017-01-23T06:40:51.067Z,0
2017-01-23T06:41:31.578Z,4
2017-01-23T06:42:12.021Z,4
2017-01-23T06:42:52.537Z,4
2017-01-23T06:43:33.050Z,0
2017-01-23T06:44:13.522Z,0
2017-01-23T06:44:54.001Z,0
2017-01-23T06:45:34.551Z,4
2017-01-23T06:46:15.035Z,4
2017-01-23T06:46:55.529Z,4
2017-01-23T06:47:36.013Z,0
2017-01-23T06:48:16.507Z,4
2017-01-23T06:48:56.968Z,4
2017-01-23T06:49:37.482Z,4
2017-01-23T06:50:17.961Z,4
2017-01-23T06:50:58.512Z,4
2017-01-23T06:51:38.950Z,8
2017-01-23T06:52:19.429Z,4
2017-01-23T06:52:59.988Z,8
2017-01-23T06:53:40.506Z,4
2017-01-23T06:54:21.017Z,8
2017-01-23T06:55:01.516Z,8
2017-01-23T06:55:42.022Z,12
2017-01-23T06:56:22.520Z,12
2017-01-23T06:57:03.049Z,16
2017-01-23T06:57:43.516Z,16
2017-01-23T06:58:24.000Z,16
2017-01-23T06:59:04.539Z,16
2017-01-23T06:59:45.056Z,20
2017-01-23T07:00:25.486Z,20
2017-01-23T07:01:06.022Z,20
2017-01-23T07:01:46.545Z,24
2017-01-23T07:02:26.969Z,24
2017-01-23T07:03:07.481Z,24
2017-01-23T07:03:48.048Z,28
2017-01-23T07:04:28.414Z,28
2017-01-23T07:05:08.928Z,28
2017-01-23T07:05:49.384Z,32
2017-01-23T07:06:29.843Z,32
2017-01-23T07:07:10.371Z,36
2017-01-23T07:07:50.839Z,36
2017-01-23T07:08:31.305Z,36
2017-01-23T07:09:11.795Z,40
2017-01-23T07:09:52.283Z,44
2017-01-23T07:10:32.792Z,48
2017-01-23T07:11:13.321Z,48
2017-01-23T07:11:53.907Z,52
2017-01-23T07:12:34.554Z,52
2017-01-23T07:13:15.103Z,56
2017-01-23T07:13:55.487Z,60
2017-01-23T07:14:36.083Z,60
2017-01-23T07:15:16.709Z,64
2017-01-23T07:15:57.304Z,68
2017-01-23T07:16:37.738Z,72
2017-01-23T07:17:18.465Z,72
2017-01-23T07:17:58.997Z,76
2017-01-23T07:18:39.493Z,84
2017-01-23T07:19:20.091Z,88
2017-01-23T07:20:00.517Z,92
2017-01-23T07:20:41.190Z,96
2017-01-23T07:21:21.774Z,100
2017-01-23T07:23:50.339Z,120
2017-01-23T07:24:31.829Z,116
2017-01-23T07:25:12.661Z,120
2017-01-23T07:25:53.729Z,120
2017-01-23T07:26:34.192Z,120
2017-01-23T07:27:14.977Z,128
2017-01-23T07:27:55.798Z,132
2017-01-23T07:28:36.446Z,136
2017-01-23T07:29:17.014Z,132
2017-01-23T07:29:57.665Z,136
2017-01-23T07:30:38.171Z,144
2017-01-23T07:31:18.788Z,148
2017-01-23T07:31:59.428Z,148
2017-01-23T07:32:40.144Z,148
2017-01-23T07:33:20.711Z,152
2017-01-23T07:34:01.661Z,160
2017-01-23T07:34:41.869Z,164
2017-01-23T07:35:22.386Z,168
2017-01-23T07:37:40.990Z,184
2017-01-23T07:38:21.725Z,192
2017-01-23T07:39:02.802Z,196
2017-01-23T07:39:45.093Z,200
2017-01-23T07:40:25.829Z,200
2017-01-23T07:41:06.951Z,204
2017-01-23T07:41:48.949Z,204
2017-01-23T07:42:29.410Z,208
2017-01-23T07:43:10.143Z,208
2017-01-23T07:45:24.661Z,212
2017-01-23T07:46:05.183Z,216
2017-01-23T07:46:45.657Z,216
2017-01-23T07:47:26.143Z,220
2017-01-23T07:48:06.634Z,224
2017-01-23T07:48:47.120Z,224
2017-01-23T07:49:27.790Z,224
2017-01-23T07:50:08.330Z,232
2017-01-23T07:50:48.794Z,232
2017-01-23T07:51:29.336Z,236
2017-01-23T07:52:09.793Z,236
2017-01-23T07:52:50.316Z,240
2017-01-23T07:53:30.854Z,244
2017-01-23T07:54:11.364Z,248
2017-01-23T07:54:51.822Z,256
2017-01-23T07:55:32.333Z,256
2017-01-23T07:56:13.016Z,264
2017-01-23T07:56:53.579Z,264
2017-01-23T07:57:34.176Z,264
2017-01-23T07:58:14.736Z,276
2017-01-23T07:58:55.287Z,280
2017-01-23T07:59:35.803Z,284
2017-01-23T08:00:16.321Z,288
2017-01-23T08:00:56.962Z,296
2017-01-23T08:01:41.886Z,300
2017-01-23T08:02:22.224Z,308
2017-01-23T08:03:02.701Z,292
2017-01-23T08:03:43.158Z,304
2017-01-23T08:04:23.707Z,308
2017-01-23T08:05:04.217Z,312
2017-01-23T08:05:44.730Z,320
2017-01-23T08:06:25.194Z,328
2017-01-23T08:07:05.656Z,344
2017-01-23T08:07:46.133Z,352
2017-01-23T08:08:26.675Z,352
2017-01-23T08:09:07.166Z,364
2017-01-23T08:09:47.711Z,364
2017-01-23T08:10:28.208Z,384
2017-01-23T08:11:08.745Z,388
2017-01-23T08:11:49.163Z,396
2017-01-23T08:12:29.704Z,416
2017-01-23T08:13:10.192Z,428
2017-01-23T08:13:50.634Z,428
2017-01-23T08:14:31.133Z,432
2017-01-23T08:15:11.639Z,436
2017-01-23T08:15:52.165Z,444
2017-01-23T08:16:32.630Z,404
2017-01-23T08:17:13.170Z,436
2017-01-23T08:17:53.589Z,452
2017-01-23T08:18:34.110Z,448
2017-01-23T08:19:14.647Z,452
2017-01-23T08:19:55.122Z,456
2017-01-23T08:20:35.615Z,472
2017-01-23T08:21:16.220Z,484
2017-01-23T08:21:56.604Z,492
2017-01-23T08:22:37.315Z,504
2017-01-23T08:23:17.787Z,508
2017-01-23T08:23:58.354Z,528
2017-01-23T08:24:38.771Z,532
2017-01-23T08:25:19.270Z,564
2017-01-23T08:25:59.830Z,588
2017-01-23T08:26:40.326Z,608
2017-01-23T08:27:20.789Z,624
2017-01-23T08:28:01.310Z,628
2017-01-23T08:28:41.818Z,632
2017-01-23T08:29:22.251Z,640
2017-01-23T08:30:02.853Z,648
2017-01-23T08:30:43.518Z,652
2017-01-23T08:31:24.168Z,656
2017-01-23T08:32:04.688Z,664
2017-01-23T08:32:45.166Z,680
2017-01-23T08:33:25.646Z,692
2017-01-23T08:34:06.196Z,704
2017-01-23T08:34:47.213Z,720
2017-01-23T08:35:27.520Z,728
2017-01-23T08:36:08.315Z,736
2017-01-23T08:36:48.964Z,740
2017-01-23T08:37:29.603Z,752
2017-01-23T08:38:10.386Z,760
2017-01-23T08:38:51.015Z,776
2017-01-23T08:39:31.370Z,792
2017-01-23T08:40:11.860Z,784
2017-01-23T08:40:52.413Z,796
2017-01-23T08:41:32.839Z,804
2017-01-23T08:42:13.448Z,808
2017-01-23T08:42:53.985Z,804
2017-01-23T08:43:34.428Z,800
2017-01-23T08:44:14.942Z,792
2017-01-23T08:44:55.359Z,796
2017-01-23T08:45:35.894Z,804
2017-01-23T08:46:16.346Z,792
2017-01-23T08:46:56.851Z,740
2017-01-23T08:47:37.404Z,764
2017-01-23T08:48:17.921Z,772
2017-01-23T08:48:58.406Z,784
2017-01-23T08:49:38.938Z,768
2017-01-23T08:50:19.473Z,768
2017-01-23T08:51:00.180Z,828
2017-01-23T08:51:40.760Z,844
2017-01-23T08:52:21.268Z,808
2017-01-23T08:53:01.799Z,780
2017-01-23T08:53:42.214Z,784
2017-01-23T08:54:22.754Z,860
2017-01-23T08:55:03.201Z,880
2017-01-23T08:55:43.688Z,888
2017-01-23T08:56:24.419Z,896
2017-01-23T08:57:05.006Z,904
2017-01-23T08:57:45.507Z,920
2017-01-23T08:58:25.978Z,916
2017-01-23T08:59:06.442Z,932
2017-01-23T08:59:46.937Z,968
2017-01-23T09:00:27.445Z,968
2017-01-23T09:01:08.027Z,976
2017-01-23T09:01:48.559Z,928
2017-01-23T09:02:28.953Z,944
2017-01-23T09:03:09.479Z,976
2017-01-23T09:05:22.835Z,984
2017-01-23T09:06:03.300Z,1036
2017-01-23T09:06:43.846Z,1088
2017-01-23T09:07:24.467Z,1092
2017-01-23T09:08:05.006Z,1104
2017-01-23T09:08:45.489Z,1124
2017-01-23T09:09:25.976Z,1144
2017-01-23T09:10:06.495Z,1136
2017-01-23T09:10:46.985Z,1132
2017-01-23T09:11:27.480Z,1140
2017-01-23T09:12:07.957Z,1152
2017-01-23T09:12:48.408Z,1152
2017-01-23T09:13:28.956Z,1156
2017-01-23T09:14:09.491Z,1168
2017-01-23T09:14:49.968Z,1180
2017-01-23T09:15:30.484Z,1192
2017-01-23T09:16:10.967Z,1200
2017-01-23T09:16:51.493Z,1188
2017-01-23T09:17:32.058Z,1172
2017-01-23T09:18:12.583Z,1156
2017-01-23T09:18:53.010Z,1164
2017-01-23T09:19:33.484Z,1180
2017-01-23T09:20:14.112Z,1204
2017-01-23T09:20:54.489Z,1220
2017-01-23T09:21:34.966Z,1224
2017-01-23T09:22:15.421Z,1208
2017-01-23T09:22:55.902Z,1192
2017-01-23T09:23:36.411Z,1184
2017-01-23T09:24:16.934Z,1200
2017-01-23T09:24:57.417Z,1228
2017-01-23T09:25:38.038Z,1248
2017-01-23T09:26:18.504Z,1272
2017-01-23T09:26:59.071Z,1300
2017-01-23T09:27:39.496Z,1304
2017-01-23T09:28:19.972Z,1304
2017-01-23T09:29:00.511Z,1292
2017-01-23T09:29:40.967Z,1288
2017-01-23T09:30:21.476Z,1292
2017-01-23T09:31:02.015Z,1316
2017-01-23T09:31:42.474Z,1244
2017-01-23T09:32:22.943Z,1328
2017-01-23T09:33:03.452Z,1324
2017-01-23T09:33:43.958Z,1352
2017-01-23T09:34:24.409Z,1332
2017-01-23T09:35:04.885Z,1304
2017-01-23T09:35:45.356Z,1300
2017-01-23T09:36:25.834Z,1276
2017-01-23T09:37:06.337Z,1296
2017-01-23T09:37:46.828Z,1308
2017-01-23T09:38:27.389Z,1328
2017-01-23T09:39:07.979Z,1356
2017-01-23T09:39:48.447Z,1392
2017-01-23T09:40:28.935Z,1472
2017-01-23T09:41:09.661Z,1496
2017-01-23T09:41:50.130Z,1476
2017-01-23T09:42:30.656Z,1460
2017-01-23T09:43:11.137Z,1456
2017-01-23T09:43:51.605Z,1440
2017-01-23T09:44:32.206Z,1440
2017-01-23T09:45:12.737Z,1452
2017-01-23T09:45:53.228Z,1464
2017-01-23T09:46:33.701Z,1456
2017-01-23T09:47:14.435Z,1440
2017-01-23T09:47:55.500Z,1412
2017-01-23T09:48:35.991Z,1420
2017-01-23T09:49:16.556Z,1452
2017-01-23T09:49:57.020Z,1444
2017-01-23T09:50:37.549Z,1500
2017-01-23T09:51:18.049Z,1496
2017-01-23T09:51:58.644Z,1512
2017-01-23T09:52:39.279Z,1508
2017-01-23T09:53:19.580Z,1524
2017-01-23T09:54:00.388Z,1516
2017-01-23T09:54:40.842Z,1528
2017-01-23T09:55:21.439Z,1544
2017-01-23T09:56:01.831Z,1540
2017-01-23T09:56:42.338Z,1552
2017-01-23T09:57:22.782Z,1552
2017-01-23T09:58:03.250Z,1568
2017-01-23T09:58:43.723Z,1580
2017-01-23T09:59:24.241Z,1588
2017-01-23T10:00:04.809Z,1596
2017-01-23T10:00:45.260Z,1604